« Back
NWS Peachtree City, Ga » Text Product » ATL Terminal Aerodrome Forecast


Printer-friendly Version
Current Version              Previous Versions:   1  2  3  4  5  6  7  8  9  

Terminal Aerodrome Forecast

184
FTUS42 KFFC 010131 AAA
TAFATL
TAF AMD
KATL 010131Z 0102/0206 20007KT P6SM FEW050 SCT080
     FM010400 23005KT P6SM SCT100 SCT250
     FM010600 22004KT 5SM BR SCT008 BKN250
     FM011400 27005KT P6SM SCT040
     FM011800 28007KT P6SM FEW050
     FM020000 29006KT P6SM FEW250=

USA.gov is the U.S. government's official web portal to all federal, state and local government web resources and services.